Time;durP1;ratioP1;P1;durP2;ratioP2;P2;SDS_P1;SDS_P2;PMS_P1;PMS_P2;Temp;Humidity;BMP_temperature;BMP_pressure;BME280_temperature;BME280_humidity;BME280_pressure;Samples;Min_cycle;Max_cycle;Signal;HPM_P1;HPM_P2
2021/11/13 00:00:24;;;;;;;107.18;31.25;;;;;;;5.76;70.71;100668.94;4331817;33;34188;-87
2021/11/13 00:02:54;;;;;;;;;;;;;;;5.97;70.18;100668.13;4331732;33;34478;-88
2021/11/13 00:05:24;;;;;;;90.07;29.70;;;;;;;6.20;69.60;100669.09;4334862;33;290748;-89
2021/11/13 00:07:53;;;;;;;73.37;30.62;;;;;;;6.06;69.91;100674.22;4331913;33;34496;-89
2021/11/13 00:10:27;;;;;;;62.38;29.80;;;;;;;6.25;69.45;100668.22;4331812;33;33243;-88
2021/11/13 00:12:59;;;;;;;84.07;30.10;;;;;;;5.98;70.48;100663.84;4332137;33;34470;-87
2021/11/13 00:15:27;;;;;;;74.93;31.55;;;;;;;6.06;69.71;100658.69;4341399;32;34320;-89
2021/11/13 00:17:56;;;;;;;75.45;32.92;;;;;;;6.01;70.44;100649.19;4346483;32;34193;-87
2021/11/13 00:20:27;;;;;;;55.08;30.52;;;;;;;5.98;70.80;100650.91;4358805;32;33459;-87
2021/11/13 00:22:58;;;;;;;68.45;30.25;;;;;;;5.97;70.89;100650.03;4346395;32;33389;-86
2021/11/13 00:25:27;;;;;;;73.25;31.85;;;;;;;6.08;70.68;100651.81;4334179;32;33827;-88
2021/11/13 00:27:55;;;;;;;80.72;32.10;;;;;;;6.23;70.43;100650.97;4345940;32;33138;-88
2021/11/13 00:30:23;;;;;;;64.30;31.17;;;;;;;6.18;69.93;100658.72;4358383;32;34993;-88
2021/11/13 00:32:52;;;;;;;75.97;32.28;;;;;;;6.29;69.72;100654.44;4333941;32;33232;-87
2021/11/13 00:35:20;;;;;;;71.20;31.15;;;;;;;6.04;70.61;100663.87;4346062;32;35251;-87
2021/11/13 00:37:50;;;;;;;64.70;31.77;;;;;;;6.04;70.85;100661.28;4346375;32;32877;-87
2021/11/13 00:40:18;;;;;;;61.58;29.85;;;;;;;6.14;70.53;100662.16;4346131;32;33871;-88
2021/11/13 00:42:48;;;;;;;86.22;31.05;;;;;;;6.32;70.14;100656.16;4346205;32;34523;-89
2021/11/13 00:45:17;;;;;;;65.60;30.30;;;;;;;6.32;69.80;100648.41;4358431;32;34826;-87
2021/11/13 00:47:45;;;;;;;57.55;29.95;;;;;;;6.38;69.25;100643.19;4358685;32;32904;-87
2021/11/13 00:50:13;;;;;;;62.67;31.35;;;;;;;6.11;70.32;100646.63;4346312;32;33359;-88
2021/11/13 00:52:42;;;;;;;66.28;32.63;;;;;;;6.15;70.21;100641.44;4358273;32;34328;-88
2021/11/13 00:55:13;;;;;;;78.72;33.28;;;;;;;5.74;72.76;100641.31;4333684;32;33564;-87
2021/11/13 00:57:42;;;;;;;71.75;33.47;;;;;;;5.41;74.28;100645.50;4363483;32;33943;-86
2021/11/13 01:00:13;;;;;;;77.32;33.25;;;;;;;5.29;75.14;100642.00;4360980;32;34164;-87
2021/11/13 01:02:42;;;;;;;75.65;33.22;;;;;;;5.35;74.59;100638.59;4347099;32;34204;-87
2021/11/13 01:05:14;;;;;;;72.87;33.60;;;;;;;5.65;73.72;100647.31;4359052;32;35599;-88
2021/11/13 01:07:43;;;;;;;69.80;31.50;;;;;;;5.42;74.47;100631.72;4358735;32;34061;-88
2021/11/13 01:10:15;;;;;;;73.37;34.05;;;;;;;5.26;75.28;100634.22;4346515;32;34024;-87
2021/11/13 01:12:45;;;;;;;64.75;31.60;;;;;;;5.22;75.83;100626.47;4346363;32;33565;-87
2021/11/13 01:15:15;;;;;;;62.22;31.48;;;;;;;5.38;74.99;100625.66;4349869;32;33581;-88
2021/11/13 01:17:47;;;;;;;67.47;30.40;;;;;;;5.25;75.81;100619.59;4331991;33;32989;-87
2021/11/13 01:20:17;;;;;;;59.83;29.23;;;;;;;5.65;74.31;100612.00;4318806;33;34241;-89
2021/11/13 01:22:46;;;;;;;57.90;30.88;;;;;;;5.67;73.79;100609.41;4331494;33;34545;-88
2021/11/13 01:25:14;;;;;;;56.60;28.77;;;;;;;5.57;74.11;100602.47;4319197;33;33902;-87
2021/11/13 01:27:42;;;;;;;68.18;30.17;;;;;;;5.55;74.73;100611.97;4319584;33;33767;-87
2021/11/13 01:30:13;;;;;;;62.40;29.37;;;;;;;5.44;74.67;100606.75;4331091;33;33954;-88
2021/11/13 01:32:42;;;;;;;56.70;28.98;;;;;;;5.19;76.21;100607.50;4331809;33;32944;-88
2021/11/13 01:35:10;;;;;;;59.08;29.50;;;;;;;5.25;75.15;100611.84;4331155;33;33593;-88
2021/11/13 01:37:39;;;;;;;65.20;28.90;;;;;;;5.55;74.46;100599.91;4330992;33;32915;-88
2021/11/13 01:40:10;;;;;;;57.85;28.58;;;;;;;5.47;74.54;100601.59;4330474;33;33635;-88
2021/11/13 01:42:39;;;;;;;62.58;28.80;;;;;;;5.44;75.37;100588.66;4331244;33;34415;-90
2021/11/13 01:45:09;;;;;;;58.25;29.12;;;;;;;5.42;75.07;100591.22;4331453;33;33312;-88
2021/11/13 01:47:38;;;;;;;57.75;28.98;;;;;;;5.57;74.23;100582.69;4331401;33;33773;-88
2021/11/13 01:50:15;;;;;;;54.55;25.95;;;;;;;5.30;74.58;100583.44;4331258;33;34841;-87
2021/11/13 01:52:44;;;;;;;55.85;27.70;;;;;;;5.10;74.73;100586.78;4330980;33;33171;-86
2021/11/13 01:55:15;;;;;;;66.43;30.67;;;;;;;5.45;74.31;100583.50;4331319;33;33361;-88
2021/11/13 01:57:44;;;;;;;66.97;29.37;;;;;;;5.47;73.65;100597.28;4319122;33;34024;-86
2021/11/13 02:00:44;;;;;;;67.10;29.92;;;;;;;5.00;74.72;100598.78;4331065;33;33164;-87
2021/11/13 02:03:13;;;;;;;64.35;28.10;;;;;;;5.03;75.27;100599.69;4325437;33;36298;-89
2021/11/13 02:05:41;;;;;;;62.17;28.50;;;;;;;5.07;75.19;100598.84;4319025;33;33593;-87
2021/11/13 02:08:09;;;;;;;68.93;30.98;;;;;;;5.35;74.21;100597.25;4343099;32;33905;-87
2021/11/13 02:10:38;;;;;;;80.00;33.03;;;;;;;4.79;75.00;100603.84;4343281;33;33987;-88
2021/11/13 02:13:06;;;;;;;73.45;31.80;;;;;;;5.09;73.89;100607.44;4343523;33;34204;-87
2021/11/13 02:15:34;;;;;;;80.22;33.38;;;;;;;5.21;73.51;100610.09;4353679;32;34350;-88
2021/11/13 02:18:05;;;;;;;76.97;33.03;;;;;;;4.82;74.11;100612.44;4358164;32;33078;-88
2021/11/13 02:20:37;;;;;;;76.20;31.58;;;;;;;5.28;72.51;100605.84;4345223;32;34336;-87
2021/11/13 02:23:09;;;;;;;82.97;32.97;;;;;;;5.08;73.12;100606.59;4345503;32;34445;-88
2021/11/13 02:25:37;;;;;;;80.82;32.22;;;;;;;5.33;72.17;100615.31;4345523;32;33658;-87
2021/11/13 02:28:07;;;;;;;83.95;31.17;;;;;;;4.73;73.68;100620.13;4344935;32;33128;-88
2021/11/13 02:30:35;;;;;;;89.95;33.45;;;;;;;5.17;72.05;100608.34;4345131;32;33529;-88
2021/11/13 02:33:04;;;;;;;82.18;33.17;;;;;;;5.13;72.20;100614.34;4357672;32;34620;-88
2021/11/13 02:35:32;;;;;;;82.68;32.83;;;;;;;4.93;73.18;100603.91;4344523;32;33459;-87
2021/11/13 02:38:11;;;;;;;81.60;31.48;;;;;;;4.72;74.03;100609.78;4357697;32;33034;-87
2021/11/13 02:40:45;;;;;;;86.40;32.50;;;;;;;4.80;74.36;100611.59;4345270;32;32811;-88
2021/11/13 02:43:14;;;;;;;83.22;31.67;;;;;;;4.76;75.21;100604.69;4345956;32;35451;-87
2021/11/13 02:45:43;;;;;;;94.10;35.45;;;;;;;4.86;74.15;100597.84;4345128;32;34006;-88
2021/11/13 02:48:12;;;;;;;82.85;32.78;;;;;;;5.10;73.46;100599.69;4332932;32;32778;-88
2021/11/13 02:50:43;;;;;;;80.20;30.88;;;;;;;5.40;72.27;100597.25;4359299;32;33262;-87
2021/11/13 02:53:17;;;;;;;75.05;30.02;;;;;;;5.48;71.82;100587.81;4361591;32;34125;-88
2021/11/13 02:55:48;;;;;;;76.00;31.27;;;;;;;5.61;71.04;100579.25;4361939;32;33424;-87
2021/11/13 02:58:20;;;;;;;83.18;32.35;;;;;;;5.35;72.19;100582.59;4361076;32;34179;-88
2021/11/13 03:00:52;;;;;;;88.95;33.03;;;;;;;5.75;70.83;100575.84;4361114;32;33447;-87
2021/11/13 03:03:21;;;;;;;79.25;31.10;;;;;;;5.44;71.80;100575.75;4347705;32;34535;-88
2021/11/13 03:05:53;;;;;;;81.57;32.03;;;;;;;5.71;70.99;100576.69;4359296;32;34759;-88
2021/11/13 03:08:27;;;;;;;78.32;31.00;;;;;;;5.63;71.12;100571.50;4347254;32;33911;-87
2021/11/13 03:10:59;;;;;;;79.75;30.92;;;;;;;5.80;70.43;100566.37;4359396;32;34825;-88
2021/11/13 03:13:29;;;;;;;74.37;30.30;;;;;;;5.99;69.88;100564.69;4359621;32;34054;-88
2021/11/13 03:16:01;;;;;;;80.05;30.58;;;;;;;5.81;70.22;100571.53;4334233;33;33042;-88
2021/11/13 03:18:30;;;;;;;76.93;29.58;;;;;;;5.72;70.75;100581.84;4332197;33;33205;-87
2021/11/13 03:20:58;;;;;;;76.25;29.27;;;;;;;5.75;70.56;100568.91;4331964;33;32457;-88
2021/11/13 03:23:27;;;;;;;77.10;29.75;;;;;;;5.84;70.21;100568.94;4332324;33;33647;-89
2021/11/13 03:25:54;;;;;;;76.72;30.80;;;;;;;6.00;69.61;100563.84;4320000;33;33868;-88
2021/11/13 03:28:24;;;;;;;73.18;27.95;;;;;;;5.87;70.21;100564.66;4343759;33;34046;-87
2021/11/13 03:30:55;;;;;;;73.62;28.52;;;;;;;6.00;69.56;100559.50;4332474;33;33975;-87
2021/11/13 03:33:23;;;;;;;69.28;29.02;;;;;;;5.96;69.66;100557.75;4332137;33;35141;-88
2021/11/13 03:35:51;;;;;;;76.15;28.80;;;;;;;5.85;70.10;100554.31;4332148;33;35243;-87
2021/11/13 03:38:20;;;;;;;73.65;29.23;;;;;;;5.42;71.91;100557.62;4332063;33;33334;-86
2021/11/13 03:40:49;;;;;;;78.47;29.87;;;;;;;5.38;72.23;100566.22;4319588;33;33052;-87
2021/11/13 03:43:17;;;;;;;67.80;28.98;;;;;;;5.66;71.17;100562.03;4319884;33;33961;-85
2021/11/13 03:45:49;;;;;;;73.05;30.83;;;;;;;5.70;70.89;100568.03;4346880;33;33684;-86
2021/11/13 03:48:19;;;;;;;84.63;29.73;;;;;;;5.64;71.18;100562.87;4337953;33;34131;-87
2021/11/13 03:50:48;;;;;;;83.28;29.45;;;;;;;5.48;71.60;100568.00;4333057;33;34954;-87
2021/11/13 03:53:16;;;;;;;81.03;30.65;;;;;;;5.27;72.46;100568.78;4332443;33;33046;-88
2021/11/13 03:55:44;;;;;;;79.75;30.75;;;;;;;5.45;71.89;100568.00;4319544;33;34434;-88
2021/11/13 03:58:13;;;;;;;78.85;29.30;;;;;;;5.60;71.61;100561.16;4331798;33;33387;-87
2021/11/13 04:00:41;;;;;;;74.05;29.90;;;;;;;5.63;71.33;100559.41;4320054;33;34278;-87
2021/11/13 04:03:10;;;;;;;77.32;29.77;;;;;;;5.80;70.64;100564.62;4331511;33;34140;-87
2021/11/13 04:05:38;;;;;;;73.22;29.12;;;;;;;5.84;70.85;100557.75;4331687;33;34005;-88
2021/11/13 04:08:06;;;;;;;76.40;30.55;;;;;;;5.53;72.04;100560.25;4331510;33;32543;-87
2021/11/13 04:10:35;;;;;;;78.80;29.55;;;;;;;5.41;72.12;100555.03;4320464;33;34299;-88
2021/11/13 04:13:06;;;;;;;74.43;29.65;;;;;;;5.27;72.77;100561.03;4332320;33;33359;-88
2021/11/13 04:15:34;;;;;;;78.70;30.60;;;;;;;5.19;73.14;100558.41;4332210;33;33185;-88
2021/11/13 04:18:03;;;;;;;80.05;31.50;;;;;;;5.44;72.91;100544.75;4331995;33;33466;-87
2021/11/13 04:20:31;;;;;;;86.43;31.45;;;;;;;5.55;72.44;100548.19;4344256;33;32553;-86
2021/11/13 04:22:59;;;;;;;74.37;30.08;;;;;;;5.48;72.29;100549.06;4343916;33;33339;-88
2021/11/13 04:25:28;;;;;;;75.55;29.05;;;;;;;5.94;70.76;100549.16;4331569;33;34383;-88
2021/11/13 04:27:59;;;;;;;83.60;30.52;;;;;;;5.92;70.79;100550.84;4332142;33;33866;-88
2021/11/13 04:30:27;;;;;;;81.60;32.15;;;;;;;5.90;71.17;100538.78;4344212;33;34406;-88
2021/11/13 04:32:56;;;;;;;78.65;29.58;;;;;;;6.04;70.34;100541.41;4344308;33;33942;-87
2021/11/13 04:38:00;;;;;;;87.40;31.40;;;;;;;6.06;70.12;100550.03;4344022;33;33928;-88
2021/11/13 04:40:32;;;;;;;89.95;34.10;;;;;;;6.30;69.79;100550.03;4331702;33;35019;-88
2021/11/13 04:43:01;;;;;;;87.03;31.55;;;;;;;6.33;69.63;100550.03;4319418;33;34554;-88
2021/11/13 04:45:30;;;;;;;95.40;33.10;;;;;;;6.29;69.77;100545.72;4343668;33;33719;-88
2021/11/13 04:48:01;;;;;;;93.00;33.65;;;;;;;6.26;70.02;100552.63;4343742;33;32635;-88
2021/11/13 04:50:30;;;;;;;92.03;34.38;;;;;;;5.88;71.41;100543.97;4343433;33;33919;-88
2021/11/13 04:52:58;;;;;;;91.53;32.92;;;;;;;5.69;72.50;100546.50;4331344;33;34116;-87
2021/11/13 04:55:29;;;;;;;90.53;32.53;;;;;;;5.84;72.04;100550.00;4331463;33;34554;-88
2021/11/13 04:58:01;;;;;;;87.68;32.83;;;;;;;6.24;70.45;100547.44;4342837;33;33684;-89
2021/11/13 05:00:31;;;;;;;93.20;33.33;;;;;;;5.98;71.25;100543.16;4331710;33;33061;-88
2021/11/13 05:03:03;;;;;;;82.70;31.60;;;;;;;6.06;71.14;100542.28;4331701;33;33313;-89
2021/11/13 05:05:33;;;;;;;87.75;32.35;;;;;;;6.20;70.76;100542.28;4331051;33;34042;-87
2021/11/13 05:08:03;;;;;;;91.85;33.03;;;;;;;5.58;72.97;100547.34;4331706;33;33563;-88
2021/11/13 05:10:33;;;;;;;89.68;35.08;;;;;;;5.84;71.86;100535.31;4343033;33;33586;-88
2021/11/13 05:13:02;;;;;;;83.28;32.30;;;;;;;6.35;70.26;100543.16;4343503;32;33200;-89
2021/11/13 05:15:31;;;;;;;91.68;32.85;;;;;;;6.20;70.65;100542.28;4353506;32;35122;-88
2021/11/13 05:18:00;;;;;;;89.80;33.30;;;;;;;6.45;69.80;100541.41;4346290;32;33379;-87
2021/11/13 05:20:29;;;;;;;85.95;32.00;;;;;;;6.21;70.68;100549.16;4333820;32;34417;-87
2021/11/13 05:23:00;;;;;;;86.80;32.65;;;;;;;6.12;71.32;100543.13;4345967;32;34762;-88
2021/11/13 05:25:34;;;;;;;90.60;33.03;;;;;;;6.46;70.00;100545.72;4358375;32;34408;-89
2021/11/13 05:28:05;;;;;;;79.10;30.85;;;;;;;6.31;70.43;100551.75;4346410;32;33177;-87
2021/11/13 05:30:36;;;;;;;88.28;29.45;;;;;;;6.01;71.49;100553.47;4346343;32;33261;-88
2021/11/13 05:33:07;;;;;;;89.37;32.67;;;;;;;5.86;71.81;100553.41;4358341;32;35115;-89
2021/11/13 05:35:36;;;;;;;86.82;33.08;;;;;;;5.67;72.96;100548.22;4357697;32;33460;-88
2021/11/13 05:38:07;;;;;;;85.97;32.88;;;;;;;5.80;72.28;100549.13;4346161;32;32942;-87
2021/11/13 05:40:38;;;;;;;77.95;30.33;;;;;;;5.84;72.35;100557.75;4334093;32;33255;-86
2021/11/13 05:43:09;;;;;;;72.47;27.30;;;;;;;6.10;70.94;100552.63;4358225;32;34193;-87
2021/11/13 05:45:41;;;;;;;78.28;27.95;;;;;;;6.13;70.74;100555.22;4358111;32;33583;-89
2021/11/13 05:48:11;;;;;;;75.40;28.33;;;;;;;5.84;71.21;100563.78;4334279;32;33978;-88
2021/11/13 05:50:41;;;;;;;67.60;27.55;;;;;;;5.69;72.29;100561.19;4358743;32;34024;-89
2021/11/13 05:53:10;;;;;;;73.53;27.65;;;;;;;5.83;71.93;100563.78;4345308;32;34535;-88
2021/11/13 05:55:41;;;;;;;67.87;26.05;;;;;;;5.84;71.53;100558.59;4358029;32;33638;-89
2021/11/13 05:58:14;;;;;;;74.12;27.87;;;;;;;5.84;71.65;100565.50;4358138;32;33912;-88
2021/11/13 06:00:47;;;;;;;65.78;26.85;;;;;;;5.71;72.13;100563.75;4346275;32;34607;-88
2021/11/13 06:03:18;;;;;;;72.32;27.10;;;;;;;6.04;71.02;100562.09;4358427;32;34478;-89
2021/11/13 06:05:46;;;;;;;69.65;27.05;;;;;;;5.95;71.23;100573.28;4333492;32;34151;-88
2021/11/13 06:08:15;;;;;;;67.05;26.87;;;;;;;5.97;70.93;100566.37;4341375;32;33520;-88
2021/11/13 06:10:50;;;;;;;67.57;26.87;;;;;;;6.03;70.67;100569.00;4346234;32;33598;-88
2021/11/13 06:13:17;;;;;;;70.97;27.73;;;;;;;5.84;71.63;100574.12;4345539;32;34413;-89
2021/11/13 06:15:52;;;;;;;68.25;27.60;;;;;;;5.94;71.76;100581.88;4346599;32;34315;-88
2021/11/13 06:18:21;;;;;;;67.90;26.95;;;;;;;6.03;71.11;100570.75;4345897;32;33776;-87
2021/11/13 06:20:53;;;;;;;67.95;27.33;;;;;;;6.01;71.21;100587.13;4333488;32;34650;-87
2021/11/13 06:23:24;;;;;;;69.47;26.75;;;;;;;6.15;70.57;100583.69;4346030;32;34627;-89
2021/11/13 06:25:53;;;;;;;68.95;26.77;;;;;;;6.09;71.13;100594.00;4346510;32;33992;-89
2021/11/13 06:28:24;;;;;;;67.15;27.42;;;;;;;6.18;70.50;100594.03;4346837;32;33773;-89
2021/11/13 06:31:05;;;;;;;65.75;27.05;;;;;;;6.12;70.76;100599.22;4351582;32;33186;-87
2021/11/13 06:33:36;;;;;;;68.20;27.35;;;;;;;6.06;70.98;100596.59;4352706;32;33824;-89
2021/11/13 06:36:10;;;;;;;65.00;28.35;;;;;;;6.30;70.22;100604.41;4335437;32;33857;-88
2021/11/13 06:38:39;;;;;;;65.70;28.05;;;;;;;5.97;71.43;100600.88;4335241;32;32915;-89
2021/11/13 06:41:10;;;;;;;71.32;29.25;;;;;;;6.04;70.99;100604.38;4335999;32;34015;-88
2021/11/13 06:43:39;;;;;;;70.62;28.02;;;;;;;6.43;69.75;100602.66;4335557;32;34054;-87
2021/11/13 06:46:07;;;;;;;70.65;28.60;;;;;;;6.32;70.04;100609.56;4347618;32;32911;-89
2021/11/13 06:48:39;;;;;;;63.63;26.67;;;;;;;6.39;69.59;100610.44;4335356;32;34166;-89
2021/11/13 06:51:08;;;;;;;64.00;27.60;;;;;;;6.51;69.16;100613.91;4347078;32;33783;-89
2021/11/13 06:53:44;;;;;;;59.20;26.62;;;;;;;6.45;69.34;100613.03;4347759;32;34390;-88
2021/11/13 06:56:23;;;;;;;67.72;28.52;;;;;;;6.24;69.98;100616.47;4360183;32;33938;-88
2021/11/13 06:58:54;;;;;;;64.35;27.15;;;;;;;6.41;69.29;100613.87;4347693;32;33016;-88
2021/11/13 07:01:24;;;;;;;68.05;28.15;;;;;;;6.38;69.61;100613.87;4347613;32;33516;-89
2021/11/13 07:04:04;;;;;;;66.47;29.73;;;;;;;6.47;69.61;100619.06;4348146;32;33433;-88
2021/11/13 07:06:33;;;;;;;;;;;;;;;6.45;69.93;100621.66;4335269;32;34282;-88
2021/11/13 07:09:04;;;;;;;62.55;27.70;;;;;;;6.45;69.86;100619.06;4346935;32;33389;-89
2021/11/13 07:11:34;;;;;;;68.53;30.10;;;;;;;6.75;69.00;100621.62;4335334;32;34130;-88
2021/11/13 07:14:05;;;;;;;127.00;33.83;;;;;;;6.30;70.89;100629.41;4335122;32;35165;-88
2021/11/13 07:16:36;;;;;;;405.15;55.80;;;;;;;6.66;69.67;100625.09;4347405;32;32834;-89
2021/11/13 07:19:07;;;;;;;92.97;28.90;;;;;;;6.66;69.46;100628.56;4347388;32;33232;-88
2021/11/13 07:21:41;;;;;;;126.32;31.35;;;;;;;6.89;68.93;100629.38;4347013;32;34061;-88
2021/11/13 07:24:14;;;;;;;107.43;32.50;;;;;;;6.65;69.58;100632.00;4359438;32;32832;-88
2021/11/13 07:26:51;;;;;;;149.77;34.00;;;;;;;6.59;69.80;100632.00;4359209;32;32864;-89
2021/11/13 07:29:25;;;;;;;64.32;28.35;;;;;;;6.63;69.96;100636.31;4361317;32;33388;-87
2021/11/13 07:31:53;;;;;;;66.30;30.20;;;;;;;6.40;70.23;100632.88;4349025;32;33367;-89
2021/11/13 07:34:25;;;;;;;;;;;;;;;6.32;70.98;100638.91;4361953;32;33096;-88
2021/11/13 07:36:58;;;;;;;49.88;23.00;;;;;;;6.62;69.84;100631.13;4360911;32;33797;-88
2021/11/13 07:39:35;;;;;;;58.60;24.55;;;;;;;6.42;69.68;100637.19;4348521;32;33009;-88
2021/11/13 07:42:07;;;;;;;54.25;24.35;;;;;;;7.09;67.60;100637.13;4346935;32;33947;-89
2021/11/13 07:44:43;;;;;;;52.85;23.30;;;;;;;6.94;67.74;100635.41;4348237;32;33894;-89
2021/11/13 07:47:13;;;;;;;61.42;25.37;;;;;;;7.17;66.86;100635.38;4347040;32;34939;-89
2021/11/13 07:49:45;;;;;;;54.35;23.70;;;;;;;6.55;69.22;100625.09;4347128;32;33854;-87
2021/11/13 07:52:16;;;;;;;69.18;26.35;;;;;;;6.72;69.60;100632.00;4359346;32;34123;-89
2021/11/13 07:54:48;;;;;;;75.30;25.42;;;;;;;6.53;70.28;100632.00;4359421;32;35028;-88
2021/11/13 07:57:18;;;;;;;59.33;25.43;;;;;;;6.67;69.57;100640.66;4359092;32;34036;-88
2021/11/13 08:00:11;;;;;;;59.97;25.75;;;;;;;6.72;69.96;100632.00;4347394;32;33809;-88
2021/11/13 08:03:14;;;;;;;65.45;25.50;;;;;;;6.50;71.30;100637.16;4345430;32;34304;-88
2021/11/13 08:05:48;;;;;;;56.72;23.02;;;;;;;6.48;72.08;100636.31;4347887;32;34619;-88
2021/11/13 08:08:19;;;;;;;53.28;23.52;;;;;;;6.57;71.48;100631.16;4346870;32;32990;-89
2021/11/13 08:10:48;;;;;;;54.45;24.95;;;;;;;6.58;71.75;100630.28;4334006;33;32998;-88
2021/11/13 08:13:19;;;;;;;55.55;24.20;;;;;;;6.77;71.00;100636.31;4345044;33;33657;-88
2021/11/13 08:15:51;;;;;;;53.13;23.85;;;;;;;6.37;72.23;100630.25;4345059;32;33262;-90
2021/11/13 08:18:23;;;;;;;60.40;24.27;;;;;;;6.57;71.66;100622.50;4359312;32;37283;-88
2021/11/13 08:20:54;;;;;;;53.33;25.27;;;;;;;6.63;71.69;100620.75;4359078;32;33410;-88
2021/11/13 08:23:28;;;;;;;56.35;24.85;;;;;;;6.56;72.38;100618.22;4358740;32;33241;-89
2021/11/13 08:25:59;;;;;;;52.15;21.77;;;;;;;6.95;71.11;100619.00;4346543;32;33583;-89
2021/11/13 08:28:34;;;;;;;49.78;23.27;;;;;;;7.22;69.90;100615.50;4359026;32;33710;-89
2021/11/13 08:31:06;;;;;;;49.67;22.87;;;;;;;6.74;71.35;100618.19;4358777;32;34511;-88
2021/11/13 08:33:37;;;;;;;54.88;22.52;;;;;;;6.59;72.25;100613.00;4358825;32;34785;-88
2021/11/13 08:36:08;;;;;;;48.75;21.77;;;;;;;6.79;71.66;100611.25;4346284;32;33290;-89
2021/11/13 08:38:36;;;;;;;58.38;22.10;;;;;;;7.16;70.55;100606.00;4359142;32;34977;-89
2021/11/13 08:41:07;;;;;;;49.78;23.38;;;;;;;7.14;70.40;100606.84;4346852;32;33573;-88
2021/11/13 08:43:42;;;;;;;49.25;21.75;;;;;;;7.20;69.74;100609.44;4346330;32;33703;-89
2021/11/13 08:46:16;;;;;;;53.13;21.90;;;;;;;7.12;70.33;100613.78;4359011;32;34415;-88
2021/11/13 08:48:46;;;;;;;50.03;23.50;;;;;;;7.16;70.17;100618.09;4346911;32;33516;-87
2021/11/13 08:51:18;;;;;;;;;;;;;;;7.08;70.67;100612.94;4347179;32;34719;-90
2021/11/13 08:53:55;;;;;;;51.03;21.83;;;;;;;7.24;70.10;100616.34;4346574;32;34908;-89
2021/11/13 08:56:30;;;;;;;51.40;21.90;;;;;;;7.50;69.16;100620.59;4358488;32;33319;-88
2021/11/13 08:59:02;;;;;;;45.35;22.08;;;;;;;7.42;69.47;100612.84;4358986;32;34963;-88
2021/11/13 09:01:38;;;;;;;49.03;22.00;;;;;;;7.01;70.88;100617.28;4346485;32;35990;-88
2021/11/13 09:04:12;;;;;;;50.45;21.35;;;;;;;7.13;70.11;100621.56;4346329;32;32922;-88
2021/11/13 09:06:45;;;;;;;49.60;21.42;;;;;;;7.29;69.62;100619.78;4359120;32;33441;-88
2021/11/13 09:09:16;;;;;;;46.47;22.00;;;;;;;7.46;69.04;100611.94;4346604;32;34191;-86
2021/11/13 09:11:52;;;;;;;47.15;21.98;;;;;;;7.45;69.06;100617.16;4359042;32;33682;-89
2021/11/13 09:14:22;;;;;;;50.95;23.48;;;;;;;7.31;68.94;100623.25;4363959;32;33104;-87
2021/11/13 09:17:03;;;;;;;51.10;23.08;;;;;;;7.25;69.43;100620.66;4341985;33;34344;-89
2021/11/13 09:19:34;;;;;;;49.55;23.60;;;;;;;7.17;69.36;100622.44;4332409;33;33028;-89
2021/11/13 09:22:06;;;;;;;50.30;22.02;;;;;;;7.08;69.74;100623.28;4331363;33;34247;-88
2021/11/13 09:24:46;;;;;;;53.72;22.80;;;;;;;7.33;68.86;100628.41;4331679;33;34684;-89
2021/11/13 09:27:20;;;;;;;49.40;21.77;;;;;;;7.38;68.68;100628.38;4332132;33;34310;-89
2021/11/13 09:29:54;;;;;;;44.88;21.15;;;;;;;7.27;69.15;100629.31;4331703;33;34749;-88
2021/11/13 09:32:30;;;;;;;49.75;22.08;;;;;;;7.31;69.01;100631.03;4332636;33;33103;-87
2021/11/13 09:35:08;;;;;;;176.07;31.45;;;;;;;7.34;68.92;100620.63;4331302;33;33158;-89
2021/11/13 09:37:41;;;;;;;47.10;22.65;;;;;;;7.41;68.87;100620.63;4331825;33;33315;-87
2021/11/13 09:40:17;;;;;;;55.95;25.73;;;;;;;7.47;68.65;100624.06;4331304;33;33868;-87
2021/11/13 09:42:50;;;;;;;54.58;25.27;;;;;;;7.39;68.89;100611.97;4319639;33;32860;-88
2021/11/13 09:45:24;;;;;;;53.28;23.98;;;;;;;7.26;69.35;100614.62;4319338;32;33233;-87
2021/11/13 09:48:02;;;;;;;49.92;23.15;;;;;;;7.32;68.95;100611.13;4321104;33;34607;-87
2021/11/13 09:50:50;;;;;;;49.38;24.00;;;;;;;7.42;68.86;100610.25;4333331;33;33125;-88
2021/11/13 09:53:24;;;;;;;53.50;23.35;;;;;;;7.25;69.09;100610.28;4332696;32;33167;-88
2021/11/13 09:55:54;;;;;;;52.53;23.30;;;;;;;7.16;69.25;100612.91;4343478;32;32976;-89
2021/11/13 09:58:28;;;;;;;48.22;22.05;;;;;;;7.19;69.55;100615.50;4344151;32;34471;-88
2021/11/13 10:00:59;;;;;;;49.20;21.87;;;;;;;7.40;68.72;100611.97;4342715;33;33510;-88
2021/11/13 10:03:37;;;;;;;47.45;21.65;;;;;;;7.45;68.55;100614.56;4344636;32;33407;-89
2021/11/13 10:06:13;;;;;;;49.40;21.33;;;;;;;7.36;68.99;100618.03;4331259;33;33097;-88
2021/11/13 10:08:47;;;;;;;41.95;19.95;;;;;;;7.64;67.75;100610.97;4331885;33;33429;-87
2021/11/13 10:11:28;;;;;;;47.72;21.55;;;;;;;7.15;69.53;100608.59;4332154;33;34181;-89
2021/11/13 10:14:03;;;;;;;47.42;20.52;;;;;;;7.26;69.35;100604.25;4333707;32;34189;-89
2021/11/13 10:16:39;;;;;;;53.00;22.00;;;;;;;7.52;68.57;100595.50;4358234;32;34740;-89
2021/11/13 10:19:19;;;;;;;45.63;21.85;;;;;;;7.40;69.22;100588.63;4345900;32;36282;-89
2021/11/13 10:21:58;;;;;;;49.28;22.58;;;;;;;7.35;69.04;100583.47;4358241;32;32698;-89
2021/11/13 10:24:28;;;;;;;54.30;24.12;;;;;;;7.62;68.25;100576.44;4345389;32;33757;-88
2021/11/13 10:27:08;;;;;;;56.35;23.27;;;;;;;7.31;69.60;100576.59;4345476;32;34787;-89
2021/11/13 10:29:44;;;;;;;57.88;24.20;;;;;;;7.71;68.61;100572.91;4346253;32;33352;-89
2021/11/13 10:32:18;;;;;;;50.17;25.12;;;;;;;7.64;68.76;100566.03;4333897;32;32927;-88
2021/11/13 10:34:53;;;;;;;51.28;23.65;;;;;;;7.44;69.44;100577.38;4357729;32;32858;-88
2021/11/13 10:37:24;;;;;;;53.97;23.60;;;;;;;7.67;68.44;100574.69;4357842;32;34807;-89
2021/11/13 10:40:00;;;;;;;49.47;22.90;;;;;;;7.68;68.54;100565.16;4357188;32;33761;-89
2021/11/13 10:42:29;;;;;;;48.20;23.20;;;;;;;7.63;68.22;100565.19;4343140;32;33988;-89
2021/11/13 10:45:01;;;;;;;47.72;22.17;;;;;;;7.44;68.84;100561.81;4342918;33;34251;-88
2021/11/13 10:47:37;;;;;;;51.10;22.13;;;;;;;7.77;67.95;100556.47;4354530;32;32667;-88
2021/11/13 10:50:16;;;;;;;47.80;20.60;;;;;;;7.54;68.51;100560.06;4318885;33;33142;-88
2021/11/13 10:53:07;;;;;;;43.10;19.65;;;;;;;7.60;68.43;100547.03;4330508;33;34574;-89
2021/11/13 10:55:36;;;;;;;;;;;;;;;7.81;67.70;100559.00;4330857;33;33419;-88
2021/11/13 10:58:26;;;;;;;44.45;19.67;;;;;;;7.73;67.99;100557.34;4330564;33;33771;-89
2021/11/13 11:00:57;;;;;;;48.43;21.63;;;;;;;7.40;69.11;100547.16;4330275;33;34545;-89
2021/11/13 11:03:30;;;;;;;52.53;23.65;;;;;;;7.76;68.12;100557.31;4330664;33;32793;-88
2021/11/13 11:05:59;;;;;;;49.20;23.95;;;;;;;7.68;68.43;100550.47;4330061;33;33887;-88
2021/11/13 11:08:32;;;;;;;52.03;24.80;;;;;;;7.56;68.90;100552.25;4330432;33;33792;-88
2021/11/13 11:11:27;;;;;;;48.42;22.45;;;;;;;7.56;68.96;100541.87;4342963;33;32948;-89
2021/11/13 11:14:00;;;;;;;52.90;23.65;;;;;;;7.59;68.70;100550.53;4345023;32;34222;-88
2021/11/13 11:16:33;;;;;;;60.90;25.52;;;;;;;7.62;68.89;100540.12;4359530;32;32824;-89
2021/11/13 11:19:03;;;;;;;49.88;24.40;;;;;;;7.94;67.46;100528.66;4346862;32;34231;-88
2021/11/13 11:22:05;;;;;;;55.90;24.30;;;;;;;7.78;68.05;100527.06;4359383;32;33402;-89
2021/11/13 11:24:36;;;;;;;56.45;25.33;;;;;;;7.99;67.35;100531.22;4359204;32;32981;-89
2021/11/13 11:27:15;;;;;;;61.05;25.55;;;;;;;8.00;67.04;100533.81;4346936;32;33782;-88
2021/11/13 11:29:49;;;;;;;52.05;23.73;;;;;;;7.88;67.59;100520.06;4359258;32;33980;-89
2021/11/13 11:32:22;;;;;;;57.85;24.83;;;;;;;7.82;67.81;100526.16;4347243;32;34349;-88
2021/11/13 11:34:54;;;;;;;54.28;24.02;;;;;;;7.71;68.08;100534.00;4347046;32;33471;-89
2021/11/13 11:37:33;;;;;;;59.30;24.48;;;;;;;7.52;68.90;100535.84;4346902;32;32850;-89
2021/11/13 11:40:08;;;;;;;52.35;22.20;;;;;;;7.61;69.11;100530.59;4346886;32;34435;-89
2021/11/13 11:42:38;;;;;;;60.05;23.77;;;;;;;7.77;68.22;100535.72;4346837;32;33088;-89